Olmos, Texas
Current Conditions -  °F | °C
As of 6:15 PM on Friday 19 Dec 2014 (Local Time) from KBEA Reporting Station
Overcast Overcast  
Wind Chill: 60°   Ceiling: 2100
Heat Index: 60°   Visibility: 10mi
Dew Point: 55°   Wind: 7mph
Humidity: 82%   Direction: 360°N
Pressure: 30.07"   Gusts: NA
Location:  28.2201°N, 97.6762°W
Report Text: KBEA 200015Z AUTO 36006KT 10SM OVC021 16/13 A3007 RMK AO2 T01560125
Loading
Personal Weather Stations






























Interactive Weather Map New forecast layout! Learn more

10-Day Weather Forecast

Advertisements
Track Severe Weather on mobile